Time;durP1;ratioP1;P1;durP2;ratioP2;P2;SDS_P1;SDS_P2;PMS_P1;PMS_P2;Temp;Humidity;BMP_temperature;BMP_pressure;BME280_temperature;BME280_humidity;BME280_pressure;Samples;Min_cycle;Max_cycle;Signal;HPM_P1;HPM_P2
2021/01/27 00:00:11;;;;;;;46.88;21.85;;;;;;;0.15;85.09;100222.92;1820556;78;21155;-78
2021/01/27 00:02:39;;;;;;;42.55;25.32;;;;;;;0.16;85.08;100220.67;1820295;78;21147;-77
2021/01/27 00:05:09;;;;;;;57.80;25.43;;;;;;;0.17;85.08;100226.29;1827023;78;21052;-77
2021/01/27 00:07:35;;;;;;;45.15;22.62;;;;;;;0.16;85.08;100227.23;1835226;78;21143;-78
2021/01/27 00:10:01;;;;;;;34.40;19.40;;;;;;;0.15;85.10;100234.72;1790928;78;21229;-77
2021/01/27 00:12:28;;;;;;;30.35;17.85;;;;;;;0.16;85.09;100231.16;1788730;80;21162;-78
2021/01/27 00:14:54;;;;;;;42.90;24.30;;;;;;;0.16;85.09;100231.16;1788702;80;21716;-77
2021/01/27 00:17:20;;;;;;;36.68;21.07;;;;;;;0.17;85.09;100238.09;1795904;78;21193;-77
2021/01/27 00:19:47;;;;;;;38.17;20.52;;;;;;;0.16;85.09;100236.41;1788651;80;21183;-77
2021/01/27 00:22:14;;;;;;;43.02;20.90;;;;;;;0.17;85.09;100243.33;1788806;80;21179;-77
2021/01/27 00:24:40;;;;;;;46.55;21.02;;;;;;;0.15;85.10;100230.78;1788688;79;21151;-77
2021/01/27 00:27:07;;;;;;;46.92;21.70;;;;;;;0.14;85.11;100240.09;1791649;78;21168;-77
2021/01/27 00:29:34;;;;;;;40.75;21.00;;;;;;;0.14;85.12;100244.83;1789383;79;21092;-77
2021/01/27 00:32:00;;;;;;;38.92;19.85;;;;;;;0.16;85.11;100249.52;1788797;79;21149;-78
2021/01/27 00:34:26;;;;;;;42.65;18.48;;;;;;;0.17;85.10;100245.95;1788794;80;21118;-78
2021/01/27 00:36:52;;;;;;;41.55;19.35;;;;;;;0.19;85.13;100253.23;1788402;80;21610;-77
2021/01/27 00:39:19;;;;;;;44.83;20.08;;;;;;;0.21;85.12;100255.25;1788118;80;21192;-78
2021/01/27 00:41:45;;;;;;;33.45;18.92;;;;;;;0.20;85.12;100250.13;1754233;80;21247;-77
2021/01/27 00:44:11;;;;;;;37.25;19.25;;;;;;;0.17;85.11;100245.95;1755271;80;21205;-78
2021/01/27 00:46:38;;;;;;;33.67;17.67;;;;;;;0.16;85.12;100249.52;1740855;82;21166;-78
2021/01/27 00:49:04;;;;;;;34.73;17.57;;;;;;;0.15;85.13;100243.89;1740980;82;21181;-78
2021/01/27 00:51:30;;;;;;;42.35;19.42;;;;;;;0.15;85.13;100247.83;1740609;82;21157;-78
2021/01/27 00:53:56;;;;;;;35.73;17.60;;;;;;;0.15;85.12;100255.69;1741037;81;21156;-78
2021/01/27 00:56:23;;;;;;;36.88;18.37;;;;;;;0.14;85.14;100254.01;1740623;82;21219;-77
2021/01/27 00:58:49;;;;;;;38.98;21.20;;;;;;;0.13;85.14;100257.59;1740530;82;21156;-77
2021/01/27 01:01:17;;;;;;;39.50;21.80;;;;;;;0.13;85.14;100252.82;1740494;82;21160;-76
2021/01/27 01:03:44;;;;;;;38.85;20.95;;;;;;;0.11;85.13;100259.47;1740357;82;22103;-78
2021/01/27 01:06:11;;;;;;;35.90;18.35;;;;;;;0.08;85.14;100262.31;1756360;79;21188;-78
2021/01/27 01:08:38;;;;;;;35.15;17.25;;;;;;;0.03;85.14;100258.34;1796972;78;21155;-78
2021/01/27 01:11:06;;;;;;;33.13;18.92;;;;;;;-0.02;85.13;100261.28;1776547;80;21208;-78
2021/01/27 01:13:32;;;;;;;43.33;19.67;;;;;;;-0.03;85.14;100264.83;1776799;80;21144;-79
2021/01/27 01:15:58;;;;;;;40.43;20.50;;;;;;;-0.02;85.13;100261.28;1776875;79;22158;-78
2021/01/27 01:18:25;;;;;;;35.38;18.92;;;;;;;-0.01;85.15;100260.34;1773632;79;21508;-79
2021/01/27 01:20:52;;;;;;;68.02;28.42;;;;;;;0.00;85.16;100265.95;1770949;80;21143;-78
2021/01/27 01:23:20;;;;;;;39.67;18.67;;;;;;;0.00;85.13;100254.97;1756381;81;21214;-78
2021/01/27 01:25:47;;;;;;;31.45;17.12;;;;;;;0.01;85.16;100263.68;1740657;82;21138;-78
2021/01/27 01:28:13;;;;;;;32.67;17.07;;;;;;;-0.01;85.15;100260.34;1743312;81;21220;-78
2021/01/27 01:30:42;;;;;;;29.82;17.25;;;;;;;0.02;85.16;100263.21;1761424;81;21219;-78
2021/01/27 01:33:14;;;;;;;30.23;16.33;;;;;;;0.02;85.16;100270.61;1761666;81;21152;-77
2021/01/27 01:35:41;;;;;;;34.95;17.40;;;;;;;0.02;85.14;100265.83;1749301;81;21204;-77
2021/01/27 01:38:08;;;;;;;32.48;17.90;;;;;;;0.02;85.15;100271.08;1740448;82;21602;-79
2021/01/27 01:40:39;;;;;;;29.72;18.30;;;;;;;-0.01;85.15;100273.45;1740349;81;21644;-77
2021/01/27 01:43:20;;;;;;;33.30;18.42;;;;;;;-0.04;85.17;100273.66;1739826;82;21187;-78
2021/01/27 01:45:51;;;;;;;36.50;17.75;;;;;;;-0.07;85.18;100274.69;1740152;82;21207;-78
2021/01/27 01:48:44;;;;;;;35.83;21.37;;;;;;;-0.07;85.20;100269.95;1740292;81;21132;-77
2021/01/27 01:51:42;;;;;;;31.82;17.05;;;;;;;-0.09;85.18;100271.34;1739841;82;21417;-77
2021/01/27 01:54:21;;;;;;;31.87;17.32;;;;;;;-0.10;85.19;100276.68;1740382;82;21228;-78
2021/01/27 01:56:57;;;;;;;28.83;17.42;;;;;;;-0.11;85.20;100277.65;1740638;82;21151;-77
2021/01/27 01:59:23;;;;;;;36.13;17.07;;;;;;;-0.13;85.19;100274.27;1741111;82;21188;-77
2021/01/27 02:01:55;;;;;;;42.25;19.17;;;;;;;-0.14;85.21;100270.00;1740065;82;21208;-78
2021/01/27 02:04:21;;;;;;;32.78;15.90;;;;;;;-0.17;85.21;100273.65;1740222;82;21644;-77
2021/01/27 02:06:47;;;;;;;30.02;17.25;;;;;;;-0.21;85.21;100268.74;1747504;79;21301;-77
2021/01/27 02:09:14;;;;;;;29.00;16.25;;;;;;;-0.24;85.24;100273.70;1785498;79;21195;-77
2021/01/27 02:11:58;;;;;;;34.25;20.65;;;;;;;-0.26;85.23;100271.67;1770929;80;21211;-75
2021/01/27 02:14:45;;;;;;;29.85;15.50;;;;;;;-0.29;85.23;100270.58;1771069;80;21204;-75
2021/01/27 02:17:38;;;;;;;28.10;16.07;;;;;;;-0.32;85.24;100279.11;1770434;81;21144;-75
2021/01/27 02:20:50;;;;;;;30.10;17.82;;;;;;;-0.37;85.25;100273.33;1771205;80;21149;-75
2021/01/27 02:23:25;;;;;;;32.93;17.98;;;;;;;-0.44;85.25;100274.22;1770688;81;21231;-75
2021/01/27 02:26:26;;;;;;;28.15;14.07;;;;;;;-0.49;85.27;100273.67;1770553;80;21140;-75
2021/01/27 02:29:06;;;;;;;22.00;13.88;;;;;;;-0.51;85.27;100271.17;1770981;80;21199;-76
2021/01/27 02:32:10;;;;;;;25.15;13.90;;;;;;;-0.57;85.28;100267.67;1755712;81;21145;-76
2021/01/27 02:35:06;;;;;;;24.32;12.82;;;;;;;-0.61;85.28;100267.50;1746257;81;22108;-75
2021/01/27 02:37:53;;;;;;;23.73;11.68;;;;;;;-0.68;85.27;100270.16;1761658;81;21742;-75
2021/01/27 02:40:24;;;;;;;22.05;11.73;;;;;;;-0.71;85.28;100270.84;1744043;81;21205;-75
2021/01/27 02:43:11;;;;;;;20.65;11.48;;;;;;;-0.66;85.30;100269.58;1810883;77;22730;-76
2021/01/27 02:45:48;;;;;;;17.60;10.10;;;;;;;-0.68;85.28;100280.64;1796689;79;21576;-77
2021/01/27 02:48:20;;;;;;;23.85;13.20;;;;;;;-0.64;85.29;100276.88;1796649;79;21222;-76
2021/01/27 02:50:54;;;;;;;18.67;12.15;;;;;;;-0.60;85.27;100275.70;1796708;79;21573;-76
2021/01/27 02:53:27;;;;;;;20.92;11.85;;;;;;;-0.58;85.26;100275.15;1762953;79;21082;-76
2021/01/27 02:56:01;;;;;;;23.30;12.13;;;;;;;-0.56;85.27;100278.49;1762600;79;21171;-76
2021/01/27 02:58:42;;;;;;;25.68;11.33;;;;;;;-0.55;85.27;100273.63;1795070;79;21168;-76
2021/01/27 03:01:14;;;;;;;18.02;10.72;;;;;;;-0.53;85.29;100278.28;1795275;79;21279;-76
2021/01/27 03:03:43;;;;;;;22.07;11.15;;;;;;;-0.53;85.27;100273.05;1774996;79;21206;-76
2021/01/27 03:06:15;;;;;;;21.47;11.30;;;;;;;-0.50;85.27;100281.19;1763573;79;21143;-76
2021/01/27 03:08:53;;;;;;;17.52;9.63;;;;;;;-0.49;85.25;100282.03;1796757;79;21140;-77
2021/01/27 03:11:27;;;;;;;18.25;9.90;;;;;;;-0.48;85.25;100283.69;1796852;79;21096;-77
2021/01/27 03:13:54;;;;;;;18.82;9.40;;;;;;;-0.48;85.24;100288.92;1796787;79;21348;-77
2021/01/27 03:16:33;;;;;;;18.30;9.00;;;;;;;-0.48;85.22;100287.15;1789696;79;21168;-77
2021/01/27 03:19:18;;;;;;;12.43;7.55;;;;;;;-0.47;85.23;100290.61;1764459;79;21119;-77
2021/01/27 03:21:52;;;;;;;18.02;8.55;;;;;;;-0.48;85.21;100290.23;1796674;79;21175;-77
2021/01/27 03:24:21;;;;;;;14.00;8.25;;;;;;;-0.48;85.21;100295.47;1796190;78;21564;-77
2021/01/27 03:26:59;;;;;;;10.90;6.20;;;;;;;-0.49;85.21;100297.75;1796852;79;22207;-77
2021/01/27 03:29:45;;;;;;;18.77;9.15;;;;;;;-0.48;85.18;100296.78;1796780;79;21187;-77
2021/01/27 03:32:20;;;;;;;16.30;9.38;;;;;;;-0.49;85.20;100294.63;1797271;79;21128;-77
2021/01/27 03:34:49;;;;;;;28.52;10.98;;;;;;;-0.46;85.17;100297.53;1796881;79;21135;-77
2021/01/27 03:37:20;;;;;;;15.70;6.60;;;;;;;-0.45;85.16;100291.34;1796941;79;21163;-77
2021/01/27 03:39:48;;;;;;;20.97;9.75;;;;;;;-0.45;85.13;100295.27;1796588;79;22658;-77
2021/01/27 03:42:21;;;;;;;18.98;8.80;;;;;;;-0.47;85.14;100291.45;1792028;79;21201;-77
2021/01/27 03:44:55;;;;;;;22.17;9.65;;;;;;;-0.45;85.12;100296.57;1788105;80;21183;-77
2021/01/27 03:47:35;;;;;;;20.35;7.78;;;;;;;-0.45;85.10;100289.56;1787015;80;21167;-77
2021/01/27 03:50:10;;;;;;;13.90;7.47;;;;;;;-0.46;85.08;100287.06;1788320;80;21552;-77
2021/01/27 03:52:52;;;;;;;13.90;7.30;;;;;;;-0.45;85.04;100288.72;1788050;80;21206;-76
2021/01/27 03:55:36;;;;;;;18.10;8.05;;;;;;;-0.45;85.04;100290.02;1787351;80;21596;-76
2021/01/27 03:58:23;;;;;;;17.90;7.95;;;;;;;-0.44;85.00;100296.48;1787635;80;21195;-76
2021/01/27 04:00:50;;;;;;;14.98;9.25;;;;;;;-0.39;84.99;100298.80;1752627;80;21604;-76
2021/01/27 04:03:20;;;;;;;21.37;11.63;;;;;;;-0.36;84.97;100294.66;1787786;80;21552;-76
2021/01/27 04:05:47;;;;;;;18.80;7.75;;;;;;;-0.32;84.94;100294.83;1785194;80;21899;-76
2021/01/27 04:08:14;;;;;;;22.98;9.33;;;;;;;-0.32;84.91;100297.45;1756378;81;21244;-77
2021/01/27 04:10:41;;;;;;;23.67;10.28;;;;;;;-0.29;84.89;100299.86;1756457;81;21185;-77
2021/01/27 04:13:07;;;;;;;36.60;12.60;;;;;;;-0.31;84.85;100289.47;1756504;81;21153;-76
2021/01/27 04:15:34;;;;;;;20.02;7.47;;;;;;;-0.33;84.82;100291.37;1756350;81;21208;-76
2021/01/27 04:18:00;;;;;;;15.72;6.90;;;;;;;-0.35;84.79;100292.42;1756599;81;21295;-77
2021/01/27 04:20:28;;;;;;;15.35;7.05;;;;;;;-0.36;84.76;100301.21;1756529;81;21173;-77
2021/01/27 04:22:54;;;;;;;20.70;8.35;;;;;;;-0.37;84.70;100300.83;1755938;81;21177;-77
2021/01/27 04:25:21;;;;;;;14.18;6.22;;;;;;;-0.40;84.66;100297.12;1756490;81;21672;-77
2021/01/27 04:27:47;;;;;;;14.78;7.22;;;;;;;-0.41;84.62;100303.29;1756415;81;21119;-77
2021/01/27 04:30:21;;;;;;;10.15;5.62;;;;;;;-0.43;84.57;100302.56;1756395;81;21288;-77
2021/01/27 04:32:47;;;;;;;19.15;8.08;;;;;;;-0.43;84.55;100297.33;1755761;81;21180;-77
2021/01/27 04:35:14;;;;;;;13.25;6.67;;;;;;;-0.45;84.49;100293.95;1756406;81;21157;-77
2021/01/27 04:37:42;;;;;;;18.45;7.42;;;;;;;-0.48;84.45;100295.47;1756521;81;21212;-77
2021/01/27 04:40:17;;;;;;;12.70;6.97;;;;;;;-0.48;84.40;100299.41;1756277;81;21125;-77
2021/01/27 04:43:03;;;;;;;13.62;6.65;;;;;;;-0.45;84.37;100304.43;1810852;78;23372;-77
2021/01/27 04:45:29;;;;;;;12.85;6.17;;;;;;;-0.53;84.35;100302.34;1796927;79;21024;-77
2021/01/27 04:48:04;;;;;;;14.00;6.72;;;;;;;-0.55;84.31;100301.13;1796687;79;21187;-77
2021/01/27 04:50:34;;;;;;;15.20;7.28;;;;;;;-0.55;84.28;100298.98;1796615;78;21418;-77
2021/01/27 04:53:29;;;;;;;24.60;9.73;;;;;;;-0.54;84.25;100301.51;1796876;79;21568;-77
2021/01/27 04:56:35;;;;;;;20.23;8.00;;;;;;;-0.54;84.23;100301.51;1796886;79;21595;-77
2021/01/27 04:59:26;;;;;;;14.68;6.92;;;;;;;-0.55;84.17;100298.51;1796955;79;21160;-77
2021/01/27 05:02:21;;;;;;;19.25;9.23;;;;;;;-0.55;84.17;100297.20;1796851;79;21183;-77
2021/01/27 05:05:14;;;;;;;24.52;11.00;;;;;;;-0.58;84.13;100297.41;1796919;79;21695;-75
2021/01/27 05:08:11;;;;;;;22.70;11.55;;;;;;;-0.54;84.11;100301.51;1819996;77;23395;-76
2021/01/27 05:10:52;;;;;;;26.02;15.45;;;;;;;-0.60;84.09;100296.66;1791909;80;21563;-76
2021/01/27 05:13:38;;;;;;;35.43;16.97;;;;;;;-0.55;84.11;100286.72;1851953;77;23339;-76
2021/01/27 05:16:09;;;;;;;22.77;13.40;;;;;;;-0.61;84.08;100291.07;1824429;78;21180;-77
2021/01/27 05:18:36;;;;;;;19.37;8.85;;;;;;;-0.60;84.06;100293.22;1823988;78;21243;-77
2021/01/27 05:21:03;;;;;;;22.37;11.15;;;;;;;-0.59;84.06;100293.10;1824216;78;21159;-76
2021/01/27 05:23:29;;;;;;;32.13;12.95;;;;;;;-0.58;84.06;100289.55;1824214;78;21103;-77
2021/01/27 05:26:09;;;;;;;38.08;14.28;;;;;;;-0.57;84.06;100286.00;1824026;78;21195;-77
2021/01/27 05:28:47;;;;;;;;;;;;;;;-0.56;84.06;100293.36;1827016;78;21152;-77
2021/01/27 05:31:13;;;;;;;29.32;13.35;;;;;;;-0.56;84.05;100295.52;1824206;78;22136;-77
2021/01/27 05:33:51;;;;;;;31.55;13.80;;;;;;;-0.57;84.06;100299.09;1824245;78;21149;-77
2021/01/27 05:36:21;;;;;;;26.62;11.35;;;;;;;-0.58;84.06;100288.24;1792815;78;21829;-77
2021/01/27 05:38:48;;;;;;;27.15;13.15;;;;;;;-0.58;84.07;100293.48;1824074;78;21148;-77
2021/01/27 05:41:28;;;;;;;37.80;17.70;;;;;;;-0.56;84.06;100297.28;1797887;78;21132;-77
2021/01/27 05:43:57;;;;;;;;;;;;;;;-0.55;84.05;100297.20;1793888;80;21245;-77
2021/01/27 05:46:32;;;;;;;32.35;15.48;;;;;;;-0.54;84.08;100305.44;1789910;80;20573;-77
2021/01/27 05:48:59;;;;;;;52.83;20.77;;;;;;;-0.53;84.07;100300.55;1791763;80;21147;-77
2021/01/27 05:51:32;;;;;;;44.88;20.08;;;;;;;-0.51;84.05;100301.30;1736117;80;21672;-77
2021/01/27 05:53:59;;;;;;;53.75;21.82;;;;;;;-0.48;84.08;100302.02;1791649;80;21439;-77
2021/01/27 05:56:27;;;;;;;42.58;17.92;;;;;;;-0.47;84.08;100307.63;1791337;80;21254;-77
2021/01/27 05:59:06;;;;;;;54.65;22.25;;;;;;;-0.45;84.09;100309.67;1791770;80;21211;-76
2021/01/27 06:01:39;;;;;;;37.93;15.80;;;;;;;-0.44;84.12;100312.20;1791796;80;21585;-77
2021/01/27 06:04:17;;;;;;;26.12;12.18;;;;;;;-0.40;84.13;100316.77;1791813;80;21207;-77
2021/01/27 06:06:49;;;;;;;33.58;13.00;;;;;;;-0.39;84.14;100317.14;1791606;80;21588;-77
2021/01/27 06:09:35;;;;;;;39.55;16.48;;;;;;;-0.38;84.14;100316.17;1790813;79;21198;-77
2021/01/27 06:12:09;;;;;;;42.13;18.48;;;;;;;-0.38;84.14;100310.94;1761488;80;21146;-77
2021/01/27 06:14:35;;;;;;;42.78;19.52;;;;;;;-0.36;84.15;100317.77;1791771;80;21139;-77
2021/01/27 06:17:24;;;;;;;25.32;11.53;;;;;;;-0.34;84.17;100320.27;1789403;80;21154;-77
2021/01/27 06:20:10;;;;;;;17.85;9.75;;;;;;;-0.35;84.18;100312.07;1774414;80;21164;-76
2021/01/27 06:23:06;;;;;;;23.95;10.38;;;;;;;-0.33;84.17;100316.72;1770137;80;21218;-77
2021/01/27 06:26:04;;;;;;;27.93;10.15;;;;;;;-0.31;84.16;100317.44;1791121;79;21282;-77
2021/01/27 06:29:00;;;;;;;19.62;9.55;;;;;;;-0.29;84.17;100322.13;1791237;80;21562;-77
2021/01/27 06:31:50;;;;;;;20.52;10.60;;;;;;;-0.28;84.19;100319.39;1718933;81;21132;-77
2021/01/27 06:34:50;;;;;;;21.02;9.73;;;;;;;-0.25;84.19;100323.60;1756148;81;21183;-77
2021/01/27 06:37:56;;;;;;;19.80;10.50;;;;;;;-0.23;84.19;100320.39;1724389;83;21606;-77
2021/01/27 06:40:52;;;;;;;52.70;20.88;;;;;;;-0.22;84.18;100319.46;1756080;81;21175;-76
2021/01/27 06:43:47;;;;;;;40.03;17.82;;;;;;;-0.21;84.20;100322.45;1756516;81;21181;-77
2021/01/27 06:46:37;;;;;;;59.90;21.07;;;;;;;-0.19;84.19;100329.73;1724507;83;21223;-77
2021/01/27 06:49:21;;;;;;;35.60;14.73;;;;;;;-0.18;84.19;100321.78;1751601;80;21160;-77
2021/01/27 06:52:06;;;;;;;40.78;16.10;;;;;;;-0.14;84.19;100319.79;1724254;83;22064;-77
2021/01/27 06:55:03;;;;;;;35.95;15.93;;;;;;;-0.14;84.18;100320.60;1755946;81;21629;-76
2021/01/27 06:58:00;;;;;;;25.37;11.55;;;;;;;-0.13;84.17;100320.98;1755987;81;21143;-76
2021/01/27 07:01:09;;;;;;;29.32;14.78;;;;;;;-0.11;84.16;100322.20;1743685;81;21195;-76
2021/01/27 07:04:17;;;;;;;31.25;15.70;;;;;;;-0.08;84.15;100327.23;1757624;81;21644;-76
2021/01/27 07:07:00;;;;;;;31.27;13.43;;;;;;;-0.06;84.15;100317.47;1718156;83;21183;-77
2021/01/27 07:10:05;;;;;;;45.15;21.30;;;;;;;-0.02;84.13;100328.11;1718320;83;21180;-76
2021/01/27 07:12:41;;;;;;;28.67;12.45;;;;;;;-0.01;84.11;100331.11;1717170;83;21147;-76
2021/01/27 07:15:34;;;;;;;26.93;12.40;;;;;;;0.02;84.10;100333.52;1730962;81;21182;-78
2021/01/27 07:18:11;;;;;;;22.17;10.68;;;;;;;0.02;84.10;100333.52;1686820;85;21187;-77
2021/01/27 07:20:50;;;;;;;30.43;17.85;;;;;;;0.06;84.05;100337.61;1726728;82;21265;-77
2021/01/27 07:23:43;;;;;;;30.02;12.55;;;;;;;0.09;84.05;100336.09;1755557;81;21166;-77
2021/01/27 07:26:20;;;;;;;22.67;12.25;;;;;;;0.09;84.04;100333.94;1755268;81;21603;-77
2021/01/27 07:29:12;;;;;;;20.15;12.53;;;;;;;0.12;84.00;100333.72;1696092;83;21574;-77
2021/01/27 07:32:13;;;;;;;18.75;10.43;;;;;;;0.14;83.97;100334.47;1726511;81;21107;-77
2021/01/27 07:34:50;;;;;;;17.82;9.20;;;;;;;0.18;83.92;100335.91;1723956;82;21299;-77
2021/01/27 07:37:39;;;;;;;20.32;10.18;;;;;;;0.20;83.91;100334.88;1755767;81;21119;-77
2021/01/27 07:40:26;;;;;;;31.48;19.70;;;;;;;0.24;83.88;100333.73;1704797;83;21170;-77
2021/01/27 07:43:17;;;;;;;39.70;21.33;;;;;;;0.27;83.86;100340.06;1694569;84;21160;-77
2021/01/27 07:45:51;;;;;;;42.35;22.22;;;;;;;0.29;83.81;100336.85;1694487;84;21224;-77
2021/01/27 07:48:38;;;;;;;67.05;29.90;;;;;;;0.32;83.78;100347.12;1667846;84;21236;-76
2021/01/27 07:51:28;;;;;;;57.93;28.35;;;;;;;0.34;83.74;100344.41;1705043;83;21178;-76
2021/01/27 07:54:07;;;;;;;44.15;21.50;;;;;;;0.35;83.70;100346.91;1759614;80;21152;-76
2021/01/27 07:56:42;;;;;;;36.20;17.32;;;;;;;0.37;83.67;100345.03;1755868;80;26712;-77
2021/01/27 07:59:36;;;;;;;30.50;14.93;;;;;;;0.41;83.64;100345.66;1748669;81;21120;-76
2021/01/27 08:02:14;;;;;;;46.30;25.37;;;;;;;0.43;83.60;100347.22;1749924;82;21218;-76
2021/01/27 08:04:50;;;;;;;30.12;16.30;;;;;;;0.47;83.59;100346.06;1724795;83;21199;-76
2021/01/27 08:07:40;;;;;;;38.75;17.77;;;;;;;0.49;83.54;100344.16;1715236;83;21132;-75
2021/01/27 08:10:17;;;;;;;43.33;19.50;;;;;;;0.52;83.50;100356.72;1749995;82;21135;-74
2021/01/27 08:12:55;;;;;;;33.88;17.10;;;;;;;0.53;83.48;100351.84;1728744;82;21205;-76
2021/01/27 08:15:29;;;;;;;33.05;14.55;;;;;;;0.56;83.48;100355.56;1720757;83;21201;-72
2021/01/27 08:18:12;;;;;;;33.08;15.35;;;;;;;0.57;83.44;100355.91;1691642;82;21638;-75
2021/01/27 08:20:42;;;;;;;28.98;14.47;;;;;;;0.60;83.39;100358.34;1703892;81;21191;-75
2021/01/27 08:23:23;;;;;;;39.30;16.57;;;;;;;0.61;83.35;100358.69;1743612;81;21658;-75
2021/01/27 08:25:59;;;;;;;51.08;22.67;;;;;;;0.65;83.31;100359.69;1716366;82;21190;-75
2021/01/27 08:28:43;;;;;;;31.40;16.12;;;;;;;0.70;83.28;100361.99;1732137;82;21205;-76
2021/01/27 08:31:18;;;;;;;51.45;29.87;;;;;;;0.73;83.26;100366.55;1761869;80;21652;-76
2021/01/27 08:33:50;;;;;;;58.05;33.78;;;;;;;0.78;83.23;100370.14;1756961;80;21132;-77
2021/01/27 08:36:20;;;;;;;50.85;28.62;;;;;;;0.82;83.20;100367.66;1757556;81;21509;-76
2021/01/27 08:42:01;;;;;;;51.73;23.90;;;;;;;0.91;83.17;100364.41;1786479;77;22754;-76
2021/01/27 08:44:40;;;;;;;44.42;22.42;;;;;;;0.85;83.14;100363.03;1794376;78;21139;-76
2021/01/27 08:47:24;;;;;;;60.63;27.70;;;;;;;0.92;83.11;100370.84;1756949;80;21270;-79
2021/01/27 08:50:01;;;;;;;80.60;34.45;;;;;;;0.95;83.09;100368.50;1753578;80;21194;-74
2021/01/27 08:52:41;;;;;;;74.62;31.48;;;;;;;0.97;83.06;100365.27;1775622;80;21131;-74
2021/01/27 08:55:33;;;;;;;71.87;30.72;;;;;;;1.02;83.05;100373.67;1772323;80;21140;-74
2021/01/27 08:58:37;;;;;;;59.48;24.77;;;;;;;1.08;82.98;100377.62;1729308;80;21206;-74
2021/01/27 09:01:27;;;;;;;75.50;26.97;;;;;;;1.13;82.97;100385.53;1773227;80;21208;-75
2021/01/27 09:03:54;;;;;;;54.40;27.62;;;;;;;1.16;82.91;100382.67;1772831;80;21155;-75
2021/01/27 09:06:29;;;;;;;47.55;23.30;;;;;;;1.20;82.86;100381.98;1747056;81;21214;-76
2021/01/27 09:09:15;;;;;;;43.10;21.20;;;;;;;1.19;82.81;100381.17;1786803;80;21124;-74
2021/01/27 09:11:41;;;;;;;39.27;19.80;;;;;;;1.20;82.78;100384.61;1770477;80;21681;-75
2021/01/27 09:14:14;;;;;;;40.67;18.32;;;;;;;1.22;82.71;100383.57;1778958;78;21211;-75
2021/01/27 09:16:40;;;;;;;41.10;17.90;;;;;;;1.28;82.66;100383.11;1780183;80;21152;-76
2021/01/27 09:19:13;;;;;;;36.28;15.50;;;;;;;1.31;82.61;100388.14;1766199;80;21197;-76
2021/01/27 09:21:39;;;;;;;36.48;16.05;;;;;;;1.35;82.58;100384.34;1773581;80;21161;-76
2021/01/27 09:24:28;;;;;;;35.17;14.55;;;;;;;1.40;82.53;100386.65;1777552;78;21183;-76
2021/01/27 09:26:55;;;;;;;24.57;13.10;;;;;;;1.42;82.50;100381.63;1784014;80;22118;-77
2021/01/27 09:29:26;;;;;;;26.90;13.62;;;;;;;1.46;82.44;100387.03;1768530;80;21578;-77
2021/01/27 09:31:53;;;;;;;34.70;15.80;;;;;;;1.47;82.41;100387.41;1779575;80;21140;-77
2021/01/27 09:34:45;;;;;;;37.58;17.62;;;;;;;1.49;82.40;100380.23;1776780;80;21142;-79
2021/01/27 09:37:29;;;;;;;37.50;21.37;;;;;;;1.51;82.35;100380.13;1771935;78;21160;-75
2021/01/27 09:40:10;;;;;;;32.73;15.43;;;;;;;1.55;82.34;100380.25;1741396;80;21226;-75
2021/01/27 09:42:36;;;;;;;33.05;17.98;;;;;;;1.57;82.29;100377.52;1732358;82;21167;-75
2021/01/27 09:45:09;;;;;;;39.48;20.17;;;;;;;1.63;82.28;100378.37;1738687;80;21191;-75
2021/01/27 09:47:38;;;;;;;29.23;14.13;;;;;;;1.69;82.26;100380.56;1748645;81;21138;-75
2021/01/27 09:50:06;;;;;;;30.40;14.90;;;;;;;1.81;82.24;100383.58;1669722;81;21163;-76
2021/01/27 09:52:32;;;;;;;40.95;19.00;;;;;;;1.86;82.16;100382.30;1748267;81;21387;-75
2021/01/27 09:55:08;;;;;;;38.75;17.05;;;;;;;1.81;82.12;100381.79;1744029;81;21202;-77
2021/01/27 09:57:35;;;;;;;49.10;20.27;;;;;;;1.72;82.07;100382.96;1743491;81;21160;-76
2021/01/27 10:00:01;;;;;;;40.85;18.85;;;;;;;1.63;82.04;100384.47;1748562;81;21158;-77
2021/01/27 10:02:32;;;;;;;35.30;17.02;;;;;;;1.71;82.04;100379.49;1755101;81;21155;-77
2021/01/27 10:04:59;;;;;;;32.15;15.32;;;;;;;1.78;82.01;100382.02;1746122;80;22174;-77
2021/01/27 10:07:34;;;;;;;38.45;18.65;;;;;;;1.91;81.98;100378.83;1752887;81;21198;-77
2021/01/27 10:10:15;;;;;;;36.55;16.52;;;;;;;2.01;81.95;100380.28;1737773;81;21645;-78
2021/01/27 10:12:41;;;;;;;29.32;15.28;;;;;;;2.15;81.92;100380.07;1747982;81;21604;-77
2021/01/27 10:15:30;;;;;;;30.88;15.53;;;;;;;2.16;81.86;100380.44;1711218;80;21204;-78
2021/01/27 10:18:20;;;;;;;21.65;11.73;;;;;;;2.13;81.79;100383.31;1742196;80;21220;-77
2021/01/27 10:20:46;;;;;;;;;;;;;;;2.06;81.73;100374.20;1754293;81;21143;-76
2021/01/27 10:23:14;;;;;;;32.93;15.68;;;;;;;2.05;81.68;100371.68;1738369;81;20266;-76
2021/01/27 10:25:42;;;;;;;28.70;13.55;;;;;;;2.05;81.65;100369.89;1725547;81;21146;-77
2021/01/27 10:28:21;;;;;;;24.92;12.30;;;;;;;2.05;81.59;100365.95;1732140;81;21174;-76
2021/01/27 10:30:56;;;;;;;41.00;17.70;;;;;;;1.97;81.49;100361.77;1732316;81;21190;-76
2021/01/27 10:33:47;;;;;;;32.17;14.15;;;;;;;1.98;81.42;100356.84;1749237;81;21573;-77
2021/01/27 10:36:40;;;;;;;25.30;10.95;;;;;;;2.05;81.34;100359.84;1720922;83;21611;-77
2021/01/27 10:39:29;;;;;;;15.55;8.88;;;;;;;2.08;81.27;100356.50;1733037;80;21148;-77
2021/01/27 10:42:10;;;;;;;23.22;11.00;;;;;;;2.11;81.14;100354.95;1744559;80;21205;-78
2021/01/27 10:44:38;;;;;;;37.50;15.38;;;;;;;2.15;81.06;100356.87;1736569;80;22084;-77
2021/01/27 10:47:15;;;;;;;42.67;18.40;;;;;;;2.20;81.00;100349.00;1732982;80;21617;-78
2021/01/27 10:49:45;;;;;;;30.80;14.55;;;;;;;2.28;80.95;100347.95;1748090;80;21135;-78
2021/01/27 10:52:25;;;;;;;19.67;10.45;;;;;;;2.30;80.87;100343.39;1747558;81;21178;-78
2021/01/27 10:54:56;;;;;;;;;;;;;;;2.34;80.77;100342.67;1741187;80;21170;-78
2021/01/27 10:57:23;;;;;;;30.57;15.60;;;;;;;2.37;80.68;100339.33;1727073;81;21319;-77
2021/01/27 10:59:51;;;;;;;24.77;12.60;;;;;;;2.40;80.60;100335.61;1730027;81;21608;-78
2021/01/27 11:02:18;;;;;;;22.60;10.38;;;;;;;2.35;80.49;100334.67;1725633;83;21155;-78
2021/01/27 11:04:44;;;;;;;24.70;11.65;;;;;;;2.31;80.42;100333.23;1725664;83;21175;-78
2021/01/27 11:07:10;;;;;;;42.80;19.67;;;;;;;2.28;80.33;100330.84;1725867;83;21641;-78
2021/01/27 11:09:36;;;;;;;24.82;12.88;;;;;;;2.29;80.24;100335.13;1725014;83;21273;-78
2021/01/27 11:12:03;;;;;;;23.52;12.13;;;;;;;2.34;80.16;100335.63;1725616;83;21185;-78
2021/01/27 11:14:30;;;;;;;26.12;11.53;;;;;;;2.39;80.06;100336.08;1725298;83;21167;-78
2021/01/27 11:16:56;;;;;;;31.48;12.73;;;;;;;2.44;79.94;100335.73;1725211;83;21155;-78
2021/01/27 11:19:23;;;;;;;34.53;18.60;;;;;;;2.55;79.90;100345.42;1725541;83;21222;-77
2021/01/27 11:21:49;;;;;;;51.75;24.25;;;;;;;2.63;79.84;100341.72;1725310;82;21271;-78
2021/01/27 18:07:12;;;;;;;75.25;39.73;;;;;;;-0.60;79.24;100231.19;1709866;78;21264;-71
2021/01/27 18:09:38;;;;;;;63.20;38.95;;;;;;;-0.58;79.28;100226.70;1643457;84;21202;-70
2021/01/27 18:12:05;;;;;;;61.15;38.05;;;;;;;-0.60;79.32;100224.64;1650749;85;21209;-71
2021/01/27 18:14:31;;;;;;;83.97;45.75;;;;;;;-0.60;79.37;100227.76;1649666;86;21641;-74
2021/01/27 18:16:58;;;;;;;83.30;40.95;;;;;;;-0.63;79.42;100224.86;1627829;86;21184;-74
2021/01/27 18:19:24;;;;;;;65.55;32.83;;;;;;;-0.65;79.50;100224.59;1599786;88;21153;-74
2021/01/27 18:21:51;;;;;;;70.05;33.45;;;;;;;-0.66;79.53;100228.99;1604314;88;21261;-74
2021/01/27 18:24:18;;;;;;;73.35;33.28;;;;;;;-0.67;79.57;100233.85;1612367;88;21265;-74
2021/01/27 18:26:44;;;;;;;55.45;29.87;;;;;;;-0.66;79.61;100234.23;1612093;88;21229;-74
2021/01/27 18:29:11;;;;;;;101.07;46.53;;;;;;;-0.63;79.64;100233.17;1611090;88;21257;-75
2021/01/27 18:31:37;;;;;;;268.55;104.70;;;;;;;-0.61;79.69;100229.53;1602394;88;21182;-74
2021/01/27 18:34:04;;;;;;;292.10;111.50;;;;;;;-0.58;79.75;100230.63;1607521;87;21681;-74
2021/01/27 18:36:30;;;;;;;342.82;136.90;;;;;;;-0.54;79.81;100233.42;1598754;89;21219;-74
2021/01/27 18:38:56;;;;;;;212.20;86.92;;;;;;;-0.55;79.82;100231.73;1613468;87;21216;-73